CheckWX is a tool to help pilots better visualize weather data.  It is not intended as a substitute for an official pre-flight weather briefing.

12:38:09 UTC

KJFK TAF
John F Kennedy International Airport
New York, New York, USA
KJFK 261123Z 2612/2718 34007KT P6SM FEW090 SCT250 FM261500 24005KT P6SM FEW060 FM261700 20009KT P6SM FEW060 FM261900 18011KT P6SM SCT060 FM270200 23006KT P6SM FEW250 FM270500 33005KT P6SM FEW250

Jun-26@
12:00 UTC

Jun-26 @ 12:00 UTC

Jun-26@
15:00 UTC

Jun-26 @ 15:00 UTC

KJFK 261123Z 2612/2718 34007KT P6SM FEW090 SCT250
Wind
  • 340° at 7 KTS
Cloud Levels
  • Few at 9,000' AGL
  • Scattered at 25,000' AGL

Jun-26@
15:00 UTC

Jun-26 @ 15:00 UTC

Jun-26@
17:00 UTC

Jun-26 @ 17:00 UTC

FM261500 24005KT P6SM FEW060

From

From Standard forecast or significant change

Wind
  • 240° at 5 KTS
Cloud Levels
  • Few at 6,000' AGL

Jun-26@
17:00 UTC

Jun-26 @ 17:00 UTC

Jun-26@
19:00 UTC

Jun-26 @ 19:00 UTC

FM261700 20009KT P6SM FEW060

From

From Standard forecast or significant change

Wind
  • 200° at 9 KTS
Cloud Levels
  • Few at 6,000' AGL

Jun-26@
19:00 UTC

Jun-26 @ 19:00 UTC

Jun-27@
02:00 UTC

Jun-27 @ 02:00 UTC

FM261900 18011KT P6SM SCT060

From

From Standard forecast or significant change

Wind
  • 180° at 11 KTS
Cloud Levels
  • Scattered at 6,000' AGL

Jun-27@
02:00 UTC

Jun-27 @ 02:00 UTC

Jun-27@
05:00 UTC

Jun-27 @ 05:00 UTC

FM270200 23006KT P6SM FEW250

From

From Standard forecast or significant change

Wind
  • 230° at 6 KTS
Cloud Levels
  • Few at 25,000' AGL

Jun-27@
05:00 UTC

Jun-27 @ 05:00 UTC

Jun-27@
18:00 UTC

Jun-27 @ 18:00 UTC

FM270500 33005KT P6SM FEW250

From

From Standard forecast or significant change

Wind
  • 330° at 5 KTS
Cloud Levels
  • Few at 25,000' AGL